createdAt,value
2023-01-04T00:00:43.676Z,99710.81
2023-01-04T00:03:16.428Z,99700.41
2023-01-04T00:05:49.219Z,99698.00
2023-01-04T00:08:21.060Z,99701.31
2023-01-04T00:10:53.777Z,99690.28
2023-01-04T00:13:26.050Z,99689.25
2023-01-04T00:16:05.587Z,99687.00
2023-01-04T00:18:41.014Z,99687.13
2023-01-04T00:21:18.072Z,99678.69
2023-01-04T00:23:53.900Z,99684.72
2023-01-04T00:26:32.636Z,99679.50
2023-01-04T00:29:08.103Z,99678.81
2023-01-04T00:31:40.380Z,99680.28
2023-01-04T00:34:16.224Z,99673.38
2023-01-04T00:36:48.246Z,99674.72
2023-01-04T00:39:21.750Z,99669.84
2023-01-04T00:41:59.866Z,99678.66
2023-01-04T00:44:35.708Z,99667.59
2023-01-04T00:47:08.054Z,99673.84
2023-01-04T00:49:40.324Z,99661.72
2023-01-04T00:52:12.599Z,99662.09
2023-01-04T00:54:45.264Z,99660.94
2023-01-04T00:57:17.160Z,99668.88
2023-01-04T00:59:49.846Z,99666.59
2023-01-04T01:02:22.707Z,99659.56
2023-01-04T01:04:54.727Z,99651.22
2023-01-04T01:07:29.826Z,99652.09
2023-01-04T01:10:01.689Z,99649.63
2023-01-04T01:12:34.404Z,99654.84
2023-01-04T01:15:06.957Z,99654.72
2023-01-04T01:17:39.654Z,99663.78
2023-01-04T01:20:11.603Z,99661.19
2023-01-04T01:22:44.275Z,99653.16
2023-01-04T01:25:17.167Z,99657.31
2023-01-04T01:27:49.005Z,99658.94
2023-01-04T01:30:21.669Z,99672.44
2023-01-04T01:32:53.508Z,99671.75
2023-01-04T01:35:26.452Z,99675.94
2023-01-04T01:37:58.594Z,99679.44
2023-01-04T01:40:31.649Z,99678.19
2023-01-04T01:43:03.883Z,99676.38
2023-01-04T01:45:36.531Z,99678.19
2023-01-04T01:48:18.209Z,99670.03
2023-01-04T01:50:56.918Z,99658.91
2023-01-04T01:53:34.714Z,99669.09
2023-01-04T01:56:09.363Z,99663.22
2023-01-04T01:58:49.767Z,99680.78
2023-01-04T02:01:22.151Z,99676.72
2023-01-04T02:03:56.110Z,99678.38
2023-01-04T02:06:34.756Z,99673.44
2023-01-04T02:09:07.639Z,99672.78
2023-01-04T02:11:39.500Z,99672.47
2023-01-04T02:14:28.519Z,99679.63
2023-01-04T02:17:48.212Z,99676.09
2023-01-04T02:20:50.989Z,99674.41
2023-01-04T02:23:55.707Z,99671.09
2023-01-04T02:26:55.616Z,99664.75
2023-01-04T02:29:55.571Z,99662.31
2023-01-04T02:32:33.358Z,99652.13
2023-01-04T02:35:33.882Z,99639.75
2023-01-04T02:39:05.341Z,99638.66
2023-01-04T02:41:42.873Z,99632.44
2023-01-04T02:44:54.238Z,99618.19
2023-01-04T02:47:52.330Z,99622.00
2023-01-04T02:50:33.269Z,99622.44
2023-01-04T02:53:21.043Z,99629.03
2023-01-04T02:56:18.840Z,99627.91
2023-01-04T02:59:18.762Z,99640.63
2023-01-04T03:02:28.253Z,99643.22
2023-01-04T03:05:56.623Z,99635.28
2023-01-04T03:08:43.755Z,99641.91
2023-01-04T03:11:36.610Z,99630.00
2023-01-04T03:14:32.638Z,99624.13
2023-01-04T03:17:12.054Z,99618.91
2023-01-04T03:19:51.444Z,99613.72
2023-01-04T03:22:56.369Z,99614.75
2023-01-04T03:26:04.967Z,99602.97
2023-01-04T03:28:58.245Z,99600.00
2023-01-04T03:31:51.712Z,99604.81
2023-01-04T03:34:43.501Z,99623.25
2023-01-04T03:37:26.273Z,99623.66
2023-01-04T03:40:44.751Z,99619.19
2023-01-04T03:43:42.738Z,99622.66
2023-01-04T03:46:48.824Z,99620.53
2023-01-04T03:49:29.422Z,99616.44
2023-01-04T03:52:04.989Z,99606.41
2023-01-04T03:54:39.958Z,99604.00
2023-01-04T03:57:13.393Z,99596.75
2023-01-04T03:59:54.138Z,99596.81
2023-01-04T04:02:31.137Z,99592.66
2023-01-04T04:05:23.032Z,99586.75
2023-01-04T04:08:14.132Z,99582.50
2023-01-04T04:10:45.988Z,99584.41
2023-01-04T04:13:20.024Z,99578.19
2023-01-04T04:15:55.048Z,99583.69
2023-01-04T04:18:27.835Z,99578.81
2023-01-04T04:20:59.764Z,99582.69
2023-01-04T04:23:32.481Z,99561.50
2023-01-04T04:26:04.934Z,99566.78
2023-01-04T04:28:37.200Z,99571.06
2023-01-04T04:31:11.056Z,99559.34
2023-01-04T04:33:43.170Z,99560.03
2023-01-04T04:36:16.424Z,99572.72
2023-01-04T04:38:49.199Z,99551.81
2023-01-04T04:41:39.685Z,99538.31
2023-01-04T04:44:18.130Z,99555.41
2023-01-04T04:46:50.619Z,99549.69
2023-01-04T04:49:23.337Z,99542.19
2023-01-04T04:51:55.586Z,99558.63
2023-01-04T04:54:28.480Z,99543.56
2023-01-04T04:57:00.821Z,99541.13
2023-01-04T04:59:33.572Z,99549.47
2023-01-04T05:02:05.632Z,99551.56
2023-01-04T05:04:38.467Z,99555.84
2023-01-04T05:07:12.573Z,99547.34
2023-01-04T05:09:45.621Z,99552.59
2023-01-04T05:12:36.310Z,99562.09
2023-01-04T05:15:08.538Z,99557.47
2023-01-04T05:17:41.368Z,99556.78
2023-01-04T05:20:13.237Z,99556.50
2023-01-04T05:22:45.920Z,99554.41
2023-01-04T05:25:18.400Z,99538.94
2023-01-04T05:27:50.857Z,99536.31
2023-01-04T05:30:43.525Z,99541.41
2023-01-04T05:33:15.376Z,99541.81
2023-01-04T05:35:48.683Z,99542.28
2023-01-04T05:38:21.676Z,99536.09
2023-01-04T05:40:55.119Z,99544.81
2023-01-04T05:43:27.228Z,99534.97
2023-01-04T05:45:59.982Z,99536.28
2023-01-04T05:48:32.131Z,99536.59
2023-01-04T05:51:04.941Z,99539.69
2023-01-04T05:53:38.120Z,99538.22
2023-01-04T05:56:10.449Z,99536.88
2023-01-04T05:58:42.749Z,99538.13
2023-01-04T06:01:15.017Z,99536.06
2023-01-04T06:03:47.943Z,99548.50
2023-01-04T06:06:20.367Z,99544.63
2023-01-04T06:08:53.193Z,99546.69
2023-01-04T06:11:27.936Z,99546.91
2023-01-04T06:14:01.380Z,99532.59
2023-01-04T06:16:33.582Z,99549.72
2023-01-04T06:19:06.722Z,99556.97
2023-01-04T06:21:38.596Z,99553.06
2023-01-04T06:24:11.565Z,99561.06
2023-01-04T06:26:44.580Z,99572.38
2023-01-04T06:29:16.891Z,99561.69
2023-01-04T06:31:49.649Z,99555.06
2023-01-04T06:34:26.862Z,99561.06
2023-01-04T06:37:03.974Z,99554.63
2023-01-04T06:39:37.649Z,99571.75
2023-01-04T06:42:30.383Z,99565.25
2023-01-04T06:45:03.457Z,99566.69
2023-01-04T06:47:35.831Z,99564.16
2023-01-04T06:50:08.604Z,99555.13
2023-01-04T06:52:41.946Z,99553.78
2023-01-04T06:55:13.831Z,99551.91
2023-01-04T06:57:46.586Z,99545.34
2023-01-04T07:00:18.656Z,99543.47
2023-01-04T07:03:14.367Z,99544.88
2023-01-04T07:05:44.722Z,99552.16
2023-01-04T07:08:16.637Z,99562.66
2023-01-04T07:10:49.589Z,99546.31
2023-01-04T07:13:21.919Z,99541.06
2023-01-04T07:15:53.824Z,99557.50
2023-01-04T07:18:48.086Z,99552.94
2023-01-04T07:21:20.222Z,99556.91
2023-01-04T07:23:52.902Z,99563.28
2023-01-04T07:26:25.247Z,99565.75
2023-01-04T07:29:17.038Z,99569.69
2023-01-04T07:31:52.264Z,99564.81
2023-01-04T07:34:25.781Z,99575.13
2023-01-04T07:37:01.143Z,99582.09
2023-01-04T07:39:33.400Z,99589.59
2023-01-04T07:42:06.319Z,99579.31
2023-01-04T07:44:38.773Z,99575.75
2023-01-04T07:47:13.943Z,99583.59
2023-01-04T07:49:49.143Z,99580.94
2023-01-04T07:52:21.878Z,99570.31
2023-01-04T07:54:54.016Z,99572.25
2023-01-04T07:57:27.064Z,99579.53
2023-01-04T08:00:01.605Z,99572.66
2023-01-04T08:02:44.121Z,99577.69
2023-01-04T08:05:17.160Z,99585.25
2023-01-04T08:07:50.258Z,99576.50
2023-01-04T08:10:25.672Z,99591.44
2023-01-04T08:13:01.156Z,99599.22
2023-01-04T08:15:34.283Z,99590.16
2023-01-04T08:18:07.159Z,99599.31
2023-01-04T08:20:40.514Z,99592.63
2023-01-04T08:23:12.376Z,99596.78
2023-01-04T08:25:45.129Z,99587.34
2023-01-04T08:28:17.021Z,99583.38
2023-01-04T08:30:49.968Z,99589.59
2023-01-04T08:33:22.755Z,99606.72
2023-01-04T08:35:54.890Z,99605.53
2023-01-04T08:38:58.819Z,99609.28
2023-01-04T08:41:47.265Z,99592.53
2023-01-04T08:44:13.765Z,99609.22
2023-01-04T08:47:07.922Z,99606.91
2023-01-04T08:49:39.798Z,99591.44
2023-01-04T08:52:14.191Z,99606.56
2023-01-04T08:54:46.467Z,99608.81
2023-01-04T08:57:19.319Z,99615.22
2023-01-04T08:59:54.619Z,99612.78
2023-01-04T09:02:28.467Z,99605.97
2023-01-04T09:05:03.490Z,99601.75
2023-01-04T09:07:38.466Z,99587.38
2023-01-04T09:10:11.625Z,99589.28
2023-01-04T09:12:45.546Z,99589.94
2023-01-04T09:15:18.840Z,99611.75
2023-01-04T09:18:29.247Z,99596.06
2023-01-04T09:20:43.761Z,99589.13
2023-01-04T09:23:16.046Z,99588.88
2023-01-04T09:25:47.987Z,99587.00
2023-01-04T09:28:21.169Z,99594.66
2023-01-04T09:30:53.456Z,99597.97
2023-01-04T09:33:47.764Z,99596.34
2023-01-04T09:36:20.141Z,99591.59
2023-01-04T09:38:53.407Z,99595.19
2023-01-04T09:41:38.339Z,99602.56
2023-01-04T09:44:10.517Z,99604.75
2023-01-04T09:47:02.158Z,99592.47
2023-01-04T09:50:00.094Z,99601.00
2023-01-04T09:52:41.801Z,99608.41
2023-01-04T09:55:44.247Z,99607.09
2023-01-04T09:58:31.254Z,99591.44
2023-01-04T10:01:19.462Z,99597.59
2023-01-04T10:04:16.128Z,99596.47
2023-01-04T10:06:50.296Z,99594.72
2023-01-04T10:09:22.604Z,99594.06
2023-01-04T10:12:16.435Z,99583.22
2023-01-04T10:14:57.816Z,99595.00
2023-01-04T10:19:28.760Z,99597.84
2023-01-04T10:21:38.464Z,99606.47
2023-01-04T10:24:38.913Z,99594.00
2023-01-04T10:27:42.654Z,99591.94
2023-01-04T10:30:40.808Z,99579.50
2023-01-04T10:33:28.533Z,99580.22
2023-01-04T10:36:00.661Z,99582.91
2023-01-04T10:38:41.200Z,99565.97
2023-01-04T10:41:27.025Z,99551.66
2023-01-04T10:44:14.633Z,99545.78
2023-01-04T10:47:11.663Z,99545.78
2023-01-04T10:49:55.531Z,99521.56
2023-01-04T10:52:56.728Z,99528.88
2023-01-04T10:56:23.737Z,99523.13
2023-01-04T10:58:57.621Z,99507.97
2023-01-04T11:01:50.583Z,99505.50
2023-01-04T11:04:38.686Z,99521.50
2023-01-04T11:07:31.811Z,99514.88
2023-01-04T11:10:13.709Z,99516.97
2023-01-04T11:12:45.959Z,99514.44
2023-01-04T11:15:19.120Z,99502.09
2023-01-04T11:17:52.419Z,99494.25
2023-01-04T11:20:27.250Z,99479.81
2023-01-04T11:23:06.475Z,99489.13
2023-01-04T11:25:55.804Z,99484.50
2023-01-04T11:28:55.890Z,99484.69
2023-01-04T11:31:51.487Z,99474.81
2023-01-04T11:34:53.829Z,99470.25
2023-01-04T11:37:38.799Z,99462.28
2023-01-04T11:40:20.400Z,99471.44
2023-01-04T11:43:23.865Z,99464.78
2023-01-04T11:46:05.480Z,99443.72
2023-01-04T11:48:45.849Z,99456.31
2023-01-04T11:51:36.831Z,99446.44
2023-01-04T11:54:28.898Z,99439.13
2023-01-04T11:57:12.212Z,99439.84
2023-01-04T11:59:45.238Z,99448.41
2023-01-04T12:05:29.436Z,99445.78
2023-01-04T12:08:03.063Z,99426.72
2023-01-04T12:10:36.221Z,99431.94
2023-01-04T12:13:10.795Z,99420.06
2023-01-04T12:16:15.640Z,99430.66
2023-01-04T12:18:48.598Z,99433.81
2023-01-04T12:21:26.740Z,99424.03
2023-01-04T12:23:58.875Z,99435.91
2023-01-04T12:26:31.724Z,99446.44
2023-01-04T12:29:24.975Z,99426.00
2023-01-04T12:32:12.359Z,99422.63
2023-01-04T12:34:46.869Z,99418.88
2023-01-04T12:37:38.527Z,99415.47
2023-01-04T12:40:44.734Z,99427.94
2023-01-04T12:43:17.779Z,99421.91
2023-01-04T12:46:48.888Z,99419.38
2023-01-04T12:49:27.816Z,99421.31
2023-01-04T12:55:05.430Z,99440.16
2023-01-04T12:57:39.342Z,99429.50
2023-01-04T13:00:13.463Z,99444.81
2023-01-04T13:03:25.883Z,99463.16
2023-01-04T13:06:08.386Z,99443.97
2023-01-04T13:08:42.738Z,99425.00
2023-01-04T13:11:48.525Z,99432.69
2023-01-04T13:14:45.322Z,99422.88
2023-01-04T13:17:25.756Z,99420.25
2023-01-04T13:19:58.119Z,99416.25
2023-01-04T13:22:32.646Z,99419.59
2023-01-04T13:25:10.368Z,99413.63
2023-01-04T13:28:03.315Z,99404.47
2023-01-04T13:30:39.562Z,99420.91
2023-01-04T13:33:29.544Z,99426.66
2023-01-04T13:42:33.853Z,99410.28
2023-01-04T13:45:47.301Z,99407.78
2023-01-04T13:48:22.809Z,99407.22
2023-01-04T13:51:35.848Z,99417.78
2023-01-04T13:54:22.605Z,99433.47
2023-01-04T13:57:09.738Z,99419.06
2023-01-04T13:59:41.630Z,99407.22
2023-01-04T14:02:22.474Z,99420.34
2023-01-04T14:04:55.413Z,99395.22
2023-01-04T14:07:28.019Z,99416.38
2023-01-04T14:10:01.273Z,99399.28
2023-01-04T14:12:33.186Z,99403.28
2023-01-04T14:15:23.527Z,99401.31
2023-01-04T14:17:57.997Z,99394.19
2023-01-04T14:20:33.740Z,99387.56
2023-01-04T14:23:26.126Z,99379.75
2023-01-04T14:25:58.065Z,99380.50
2023-01-04T14:28:46.847Z,99397.00
2023-01-04T14:31:27.076Z,99395.16
2023-01-04T14:34:06.094Z,99381.72
2023-01-04T14:36:40.209Z,99394.91
2023-01-04T14:39:19.927Z,99397.50
2023-01-04T14:41:58.401Z,99396.25
2023-01-04T14:44:31.608Z,99397.47
2023-01-04T14:47:06.669Z,99392.88
2023-01-04T14:49:38.669Z,99394.19
2023-01-04T14:55:15.441Z,99390.06
2023-01-04T14:57:48.233Z,99413.94
2023-01-04T15:00:20.697Z,99407.19
2023-01-04T15:02:53.959Z,99405.88
2023-01-04T15:05:26.548Z,99406.50
2023-01-04T15:07:59.220Z,99413.78
2023-01-04T15:10:32.747Z,99395.25
2023-01-04T15:13:05.828Z,99390.00
2023-01-04T15:15:39.313Z,99374.69
2023-01-04T15:18:11.647Z,99376.59
2023-01-04T15:20:44.558Z,99371.34
2023-01-04T15:23:16.895Z,99372.66
2023-01-04T15:25:50.297Z,99386.59
2023-01-04T15:28:24.209Z,99383.31
2023-01-04T15:30:57.406Z,99397.13
2023-01-04T15:33:32.180Z,99393.22
2023-01-04T15:36:09.457Z,99391.19
2023-01-04T15:38:42.956Z,99379.94
2023-01-04T15:41:36.812Z,99381.31
2023-01-04T15:44:11.752Z,99362.81
2023-01-04T15:46:44.484Z,99372.09
2023-01-04T15:49:18.040Z,99351.66
2023-01-04T15:51:51.408Z,99365.44
2023-01-04T15:54:30.247Z,99346.31
2023-01-04T15:57:02.952Z,99350.22
2023-01-04T15:59:34.811Z,99362.19
2023-01-04T16:02:11.376Z,99357.59
2023-01-04T16:04:45.826Z,99354.91
2023-01-04T16:07:19.248Z,99343.09
2023-01-04T16:09:51.980Z,99360.38
2023-01-04T16:15:40.307Z,99370.16
2023-01-04T16:18:13.021Z,99384.19
2023-01-04T16:20:45.367Z,99382.91
2023-01-04T16:23:17.610Z,99364.41
2023-01-04T16:25:50.815Z,99373.09
2023-01-04T16:28:22.685Z,99380.34
2023-01-04T16:30:56.440Z,99376.41
2023-01-04T16:33:29.154Z,99377.13
2023-01-04T16:36:05.334Z,99400.13
2023-01-04T16:38:41.389Z,99371.06
2023-01-04T16:41:17.785Z,99356.56
2023-01-04T16:43:53.950Z,99352.66
2023-01-04T16:46:33.995Z,99342.09
2023-01-04T16:49:16.583Z,99360.56
2023-01-04T16:51:49.924Z,99347.44
2023-01-04T16:54:21.818Z,99350.16
2023-01-04T16:56:59.067Z,99359.41
2023-01-04T16:59:32.167Z,99331.72
2023-01-04T17:02:04.991Z,99321.16
2023-01-04T17:04:37.506Z,99307.31
2023-01-04T17:07:10.303Z,99314.59
2023-01-04T17:09:42.714Z,99314.59
2023-01-04T17:15:41.385Z,99347.03
2023-01-04T17:18:22.575Z,99344.38
2023-01-04T17:21:16.900Z,99349.06
2023-01-04T17:23:53.733Z,99312.09
2023-01-04T17:26:29.115Z,99321.38
2023-01-04T17:29:02.595Z,99328.63
2023-01-04T17:31:39.648Z,99328.00
2023-01-04T17:34:22.226Z,99313.44
2023-01-04T17:36:56.327Z,99320.75
2023-01-04T17:39:31.672Z,99307.59
2023-01-04T17:42:05.336Z,99278.56
2023-01-04T17:44:40.437Z,99285.81
2023-01-04T17:50:07.262Z,99279.28
2023-01-04T17:52:39.636Z,99276.06
2023-01-04T17:55:12.734Z,99290.66
2023-01-04T17:57:45.270Z,99286.63
2023-01-04T18:00:18.507Z,99284.66
2023-01-04T18:02:51.264Z,99266.22
2023-01-04T18:05:24.089Z,99287.41
2023-01-04T18:07:56.028Z,99288.13
2023-01-04T18:10:48.562Z,99301.38
2023-01-04T18:13:21.568Z,99274.34
2023-01-04T18:16:22.568Z,99266.44
2023-01-04T18:18:55.280Z,99272.41
2023-01-04T18:21:31.182Z,99283.63
2023-01-04T18:29:55.437Z,99286.25
2023-01-04T18:32:28.812Z,99297.38
2023-01-04T18:35:05.536Z,99287.28
2023-01-04T18:37:37.965Z,99288.56
2023-01-04T18:40:10.429Z,99303.13
2023-01-04T18:42:50.231Z,99307.88
2023-01-04T18:45:22.124Z,99300.06
2023-01-04T18:47:54.840Z,99300.06
2023-01-04T18:50:27.146Z,99296.19
2023-01-04T18:52:59.424Z,99297.53
2023-01-04T18:55:32.351Z,99287.75
2023-01-04T18:58:04.243Z,99295.72
2023-01-04T19:00:36.929Z,99299.69
2023-01-04T19:03:12.115Z,99305.59
2023-01-04T19:05:48.768Z,99293.59
2023-01-04T19:08:21.474Z,99300.25
2023-01-04T19:10:54.005Z,99306.25
2023-01-04T19:13:26.699Z,99292.38
2023-01-04T19:15:59.567Z,99304.94
2023-01-04T19:18:32.339Z,99296.38
2023-01-04T19:21:05.565Z,99310.22
2023-01-04T19:23:38.770Z,99303.56
2023-01-04T19:26:11.133Z,99304.78
2023-01-04T19:28:44.273Z,99310.06
2023-01-04T19:31:18.068Z,99300.25
2023-01-04T19:33:50.137Z,99312.13
2023-01-04T19:36:23.906Z,99288.31
2023-01-04T19:38:56.455Z,99284.38
2023-01-04T19:41:34.670Z,99296.88
2023-01-04T19:47:04.785Z,99290.91
2023-01-04T19:49:37.047Z,99296.88
2023-01-04T19:52:09.863Z,99284.38
2023-01-04T19:54:41.882Z,99298.19
2023-01-04T19:57:16.465Z,99302.91
2023-01-04T19:59:48.873Z,99318.13
2023-01-04T20:02:21.875Z,99320.78
2023-01-04T20:04:54.396Z,99310.22
2023-01-04T20:07:26.549Z,99324.06
2023-01-04T20:09:59.928Z,99323.44
2023-01-04T20:12:32.252Z,99316.81
2023-01-04T20:15:04.775Z,99310.88
2023-01-04T20:17:37.094Z,99318.19
2023-01-04T20:20:09.766Z,99309.59
2023-01-04T20:22:41.619Z,99324.75
2023-01-04T20:25:15.457Z,99323.44
2023-01-04T20:27:47.979Z,99326.13
2023-01-04T20:30:22.133Z,99311.59
2023-01-04T20:32:57.367Z,99313.56
2023-01-04T20:35:29.924Z,99318.22
2023-01-04T20:38:02.649Z,99306.97
2023-01-04T20:43:33.318Z,99318.16
2023-01-04T20:46:12.749Z,99318.22
2023-01-04T20:48:45.491Z,99328.09
2023-01-04T20:51:23.510Z,99313.56
2023-01-04T20:53:59.643Z,99318.78
2023-01-04T20:56:37.895Z,99314.84
2023-01-04T20:59:09.933Z,99309.56
2023-01-04T21:01:42.739Z,99308.19
2023-01-04T21:04:16.234Z,99303.53
2023-01-04T21:06:48.996Z,99304.84
2023-01-04T21:09:21.211Z,99307.53
2023-01-04T21:11:55.957Z,99303.53
2023-01-04T21:14:28.216Z,99296.31
2023-01-04T21:17:00.895Z,99289.69
2023-01-04T21:19:34.393Z,99302.22
2023-01-04T21:22:07.526Z,99289.66
2023-01-04T21:24:40.615Z,99281.09
2023-01-04T21:27:13.232Z,99283.75
2023-01-04T21:29:45.075Z,99296.28
2023-01-04T21:32:17.799Z,99279.84
2023-01-04T21:34:50.080Z,99285.81
2023-01-04T21:37:22.389Z,99272.53
2023-01-04T21:39:54.638Z,99279.06
2023-01-04T21:42:27.723Z,99305.53
2023-01-04T21:44:59.587Z,99279.75
2023-01-04T21:47:33.808Z,99268.50
2023-01-04T21:50:06.172Z,99246.09
2023-01-04T21:52:38.907Z,99269.81
2023-01-04T21:55:10.923Z,99261.91
2023-01-04T21:57:43.596Z,99255.91
2023-01-04T22:00:15.990Z,99259.91
2023-01-04T22:02:47.929Z,99239.41
2023-01-04T22:05:20.711Z,99251.94
2023-01-04T22:07:52.599Z,99259.88
2023-01-04T22:10:25.382Z,99272.41
2023-01-04T22:12:57.681Z,99247.34
2023-01-04T22:15:30.174Z,99252.00
2023-01-04T22:18:02.022Z,99247.34
2023-01-04T22:20:34.788Z,99242.72
2023-01-04T22:23:06.660Z,99248.00
2023-01-04T22:25:39.721Z,99236.81
2023-01-04T22:28:14.881Z,99243.44
2023-01-04T22:30:47.977Z,99243.41
2023-01-04T22:33:20.961Z,99250.69
2023-01-04T22:35:53.646Z,99229.53
2023-01-04T22:38:26.159Z,99233.50
2023-01-04T22:40:58.845Z,99244.00
2023-01-04T22:43:30.962Z,99214.28
2023-01-04T22:46:06.646Z,99259.84
2023-01-04T22:48:38.620Z,99248.63
2023-01-04T22:51:15.738Z,99242.66
2023-01-04T22:53:48.329Z,99232.09
2023-01-04T22:56:22.684Z,99238.69
2023-01-04T22:58:56.945Z,99234.75
2023-01-04T23:04:25.784Z,99238.69
2023-01-04T23:06:58.516Z,99230.06
2023-01-04T23:09:30.381Z,99236.75
2023-01-04T23:12:03.475Z,99231.50
2023-01-04T23:14:35.346Z,99221.59
2023-01-04T23:17:08.044Z,99214.31
2023-01-04T23:19:39.963Z,99196.50
2023-01-04T23:22:13.046Z,99207.78
2023-01-04T23:24:45.322Z,99217.75
2023-01-04T23:27:17.674Z,99212.50
2023-01-04T23:29:50.395Z,99210.56
2023-01-04T23:32:22.682Z,99200.00
2023-01-04T23:34:54.599Z,99192.75
2023-01-04T23:37:26.890Z,99198.03
2023-01-04T23:39:59.146Z,99202.00
2023-01-04T23:42:31.897Z,99177.59
2023-01-04T23:45:04.815Z,99164.44
2023-01-04T23:47:36.687Z,99182.25
2023-01-04T23:50:09.980Z,99178.28
2023-01-04T23:52:42.485Z,99177.03
2023-01-04T23:55:14.870Z,99173.00
2023-01-04T23:57:47.172Z,99169.66
